»·PEaware :: WJA520 KBFL-KDPA

WJA520 :: KBFL-KDPA

FLIGHT INFORMATION

Flight Status: Arrived
Operator:
Westjet Airlines
More flights by this operator :: More flights under this callsign
Pilot: Alex C. (14758)
Aircraft: BOMBARDIER BD-100 CHALLENGER 300
(CL30)
More flights by this aircraft type
Origin: KBFL Meadows
United States
Destination: KDPA Du Page
United States
More flights between these airports :: More routes between these airports
Route: +MEADO3 PMD J6 HELDE NNAVY LAS J146 DICEE HBU J146 GLD J192 PWE J64 BDF
File this flight plan on PilotEdge
Remarks:
Altitude:
(Current/Filed)
41,000ft
Speed:
(Current/Filed)
455kts
Departed: 12-Oct-18 03:59 PM
Arrived: 12-Oct-18 07:19 PM
Distance/Time
Traveled:
1485nm/3:20
Distance/Time
To Go:
Arrived

Flight Plot

Page will automatically refresh every two minutes.

Flight plan parsing failed; only flown route is shown


Map Options




Map Legend


Flown Route
Filed Route
Departure Airport
Arrival Airport
Navaid (VOR, NDB)
Fix

Horizontal Profiles

Position Reports

Time Latitude Longitude Heading Altitude Ground
Speed
12-Oct-18 15:46 35.429408 -119.046054 226 513ft 0kts
12-Oct-18 15:47 35.429408 -119.046054 226 513ft 0kts
12-Oct-18 15:48 35.429408 -119.046054 226 513ft 0kts
12-Oct-18 15:49 35.429408 -119.046054 226 513ft 0kts
12-Oct-18 15:50 35.429408 -119.046054 226 513ft 0kts
12-Oct-18 15:51 35.429408 -119.046054 226 513ft 0kts
12-Oct-18 15:52 35.429408 -119.046054 226 513ft 0kts
12-Oct-18 15:53 35.429408 -119.046054 226 513ft 0kts
12-Oct-18 15:54 35.429408 -119.046054 226 513ft 0kts
12-Oct-18 15:55 35.429408 -119.046054 226 513ft 0kts
12-Oct-18 15:56 35.429408 -119.046054 226 513ft 0kts
12-Oct-18 15:57 35.429399 -119.046065 226 513ft 1kts
12-Oct-18 15:58 35.427866 -119.046756 135 512ft 12kts
12-Oct-18 15:59 35.425811 -119.044656 213 513ft 0kts
12-Oct-18 16:00 35.425811 -119.044656 213 513ft 0kts
12-Oct-18 16:01 35.428118 -119.049264 315 513ft 88kts
12-Oct-18 16:02 35.467344 -119.097672 314 1766ft 282kts
12-Oct-18 16:03 35.518015 -119.163197 314 5991ft 272kts
12-Oct-18 16:04 35.570098 -119.231089 314 5992ft 273kts
12-Oct-18 16:05 35.633522 -119.255888 42 10107ft 282kts
12-Oct-18 16:06 35.614841 -119.178367 160 13000ft 304kts
12-Oct-18 16:07 35.533274 -119.143188 149 15589ft 329kts
12-Oct-18 16:08 35.458585 -119.077646 138 18538ft 350kts
12-Oct-18 16:09 35.385519 -118.995193 134 21199ft 369kts
12-Oct-18 16:10 35.310207 -118.903406 133 23055ft 398kts
12-Oct-18 16:11 35.232198 -118.806431 134 25288ft 406kts
12-Oct-18 16:12 35.152630 -118.707288 135 27062ft 417kts
12-Oct-18 16:13 35.071672 -118.606567 135 28591ft 428kts
12-Oct-18 16:14 34.987566 -118.502136 136 29945ft 437kts
12-Oct-18 16:15 34.901826 -118.396021 138 31157ft 446kts
12-Oct-18 16:16 34.817990 -118.292737 140 32102ft 457kts
12-Oct-18 16:17 34.728996 -118.183365 140 33280ft 460kts
12-Oct-18 16:18 34.655181 -118.056180 113 34514ft 481kts
12-Oct-18 16:19 34.650398 -117.892939 86 35842ft 495kts
12-Oct-18 16:20 34.666352 -117.743217 86 36934ft 494kts
12-Oct-18 16:21 34.683962 -117.577936 86 38062ft 494kts
12-Oct-18 16:22 34.701371 -117.414929 83 39094ft 495kts
12-Oct-18 16:23 34.746839 -117.256815 71 40058ft 500kts
12-Oct-18 16:24 34.798010 -117.100138 70 40906ft 502kts
12-Oct-18 16:25 34.849763 -116.942255 71 40915ft 508kts
12-Oct-18 16:26 34.899788 -116.789025 71 40915ft 515kts
12-Oct-18 16:27 34.981597 -116.648735 49 40914ft 505kts
12-Oct-18 16:28 35.074235 -116.523613 48 40931ft 495kts
12-Oct-18 16:29 35.165693 -116.401480 48 40944ft 498kts
12-Oct-18 16:30 35.258486 -116.277427 48 40941ft 498kts
12-Oct-18 16:31 35.351409 -116.152792 48 40943ft 497kts
12-Oct-18 16:32 35.444223 -116.027862 48 40944ft 498kts
12-Oct-18 16:33 35.537045 -115.902448 48 40945ft 498kts
12-Oct-18 16:34 35.629723 -115.776763 48 40947ft 498kts
12-Oct-18 16:35 35.722177 -115.650925 48 40948ft 497kts
12-Oct-18 16:36 35.799078 -115.545881 48 40949ft 497kts
12-Oct-18 16:37 35.906865 -115.398115 48 40950ft 498kts
12-Oct-18 16:38 35.982199 -115.294454 49 40947ft 497kts
12-Oct-18 16:39 36.081295 -115.138982 67 40955ft 495kts
12-Oct-18 16:40 36.130535 -114.992247 71 40943ft 504kts
12-Oct-18 16:41 36.172726 -114.857254 72 40942ft 507kts
12-Oct-18 16:42 36.231013 -114.667501 72 40944ft 505kts
12-Oct-18 16:43 36.272187 -114.532416 72 40945ft 506kts
12-Oct-18 16:44 36.321541 -114.369576 72 40947ft 505kts
12-Oct-18 16:45 36.378274 -114.181230 72 40951ft 505kts
12-Oct-18 16:46 36.418836 -114.045760 72 40989ft 505kts
12-Oct-18 16:47 36.467426 -113.882669 72 41009ft 505kts
12-Oct-18 16:48 36.515772 -113.719412 72 41011ft 505kts
12-Oct-18 16:49 36.563763 -113.556415 72 41012ft 505kts
12-Oct-18 16:50 36.619736 -113.365089 72 41059ft 505kts
12-Oct-18 16:51 36.658637 -113.231164 73 41090ft 505kts
12-Oct-18 16:52 36.705873 -113.067626 73 41093ft 505kts
12-Oct-18 16:53 36.753295 -112.902555 74 41095ft 512kts
12-Oct-18 16:54 36.801471 -112.733682 75 41099ft 522kts
12-Oct-18 16:55 36.849519 -112.564187 75 41100ft 519kts
12-Oct-18 16:56 36.896542 -112.397129 75 41102ft 519kts
12-Oct-18 16:57 36.943880 -112.228149 75 41093ft 518kts
12-Oct-18 16:58 36.991130 -112.058433 75 41103ft 517kts
12-Oct-18 16:59 37.037782 -111.889895 74 41103ft 513kts
12-Oct-18 17:00 37.083907 -111.722241 73 41088ft 508kts
12-Oct-18 17:01 37.128726 -111.558377 72 41081ft 503kts
12-Oct-18 17:02 37.173767 -111.392710 72 41085ft 504kts
12-Oct-18 17:03 37.218252 -111.227931 73 41078ft 504kts
12-Oct-18 17:04 37.262332 -111.063475 73 41078ft 506kts
12-Oct-18 17:05 37.306954 -110.895883 72 41079ft 525kts
12-Oct-18 17:06 37.353025 -110.721750 73 41083ft 528kts
12-Oct-18 17:07 37.398780 -110.547618 73 41114ft 526kts
12-Oct-18 17:08 37.444059 -110.374153 72 41161ft 516kts
12-Oct-18 17:09 37.487671 -110.205941 73 41160ft 514kts
12-Oct-18 17:10 37.531960 -110.033886 73 41164ft 517kts
12-Oct-18 17:11 37.575834 -109.862362 73 41161ft 516kts
12-Oct-18 17:12 37.618686 -109.693673 73 41171ft 516kts
12-Oct-18 17:13 37.662027 -109.521857 73 41171ft 516kts
12-Oct-18 17:14 37.705212 -109.349461 74 41173ft 516kts
12-Oct-18 17:15 37.747358 -109.180085 74 41164ft 516kts
12-Oct-18 17:16 37.790477 -109.005547 74 41167ft 528kts
12-Oct-18 17:17 37.844026 -108.831382 66 41144ft 534kts
12-Oct-18 17:18 37.903574 -108.660079 66 41129ft 531kts
12-Oct-18 17:19 37.962962 -108.488846 66 41211ft 532kts
12-Oct-18 17:20 38.020716 -108.321447 67 41220ft 532kts
12-Oct-18 17:21 38.079595 -108.149820 67 41223ft 532kts
12-Oct-18 17:22 38.137199 -107.980917 67 41191ft 532kts
12-Oct-18 17:23 38.195419 -107.809195 67 41163ft 532kts
12-Oct-18 17:24 38.253790 -107.635997 67 41139ft 532kts
12-Oct-18 17:25 38.311237 -107.464572 67 41143ft 532kts
12-Oct-18 17:26 38.367748 -107.294920 68 41139ft 532kts
12-Oct-18 17:27 38.424961 -107.122079 68 41142ft 532kts
12-Oct-18 17:28 38.470611 -106.943556 76 41146ft 532kts
12-Oct-18 17:29 38.507574 -106.760276 76 41150ft 537kts
12-Oct-18 17:30 38.544056 -106.575457 76 41152ft 536kts
12-Oct-18 17:31 38.580108 -106.390658 76 41169ft 536kts
12-Oct-18 17:32 38.615194 -106.209096 77 41156ft 536kts
12-Oct-18 17:33 38.650564 -106.024350 77 41152ft 536kts
12-Oct-18 17:34 38.685692 -105.839194 77 41172ft 536kts
12-Oct-18 17:35 38.720557 -105.653646 77 41180ft 536kts
12-Oct-18 17:36 38.760764 -105.437533 77 41111ft 536kts
12-Oct-18 17:37 38.788980 -105.284467 77 41050ft 535kts
12-Oct-18 17:38 38.822865 -105.098962 77 41048ft 536kts
12-Oct-18 17:39 38.856528 -104.912657 76 41054ft 540kts
12-Oct-18 17:40 38.890214 -104.724814 76 41080ft 540kts
12-Oct-18 17:41 38.923345 -104.538046 76 41098ft 534kts
12-Oct-18 17:42 38.955879 -104.352857 76 41102ft 530kts
12-Oct-18 17:43 38.987658 -104.170158 76 41090ft 525kts
12-Oct-18 17:44 39.018990 -103.988220 76 41061ft 521kts
12-Oct-18 17:45 39.049808 -103.807482 76 41041ft 517kts
12-Oct-18 17:46 39.080279 -103.626954 76 41039ft 518kts
12-Oct-18 17:47 39.110206 -103.447925 76 41040ft 518kts
12-Oct-18 17:48 39.139912 -103.268422 77 41030ft 518kts
12-Oct-18 17:49 39.169528 -103.087511 77 41031ft 518kts
12-Oct-18 17:50 39.198699 -102.907524 76 41027ft 516kts
12-Oct-18 17:51 39.227550 -102.727854 76 41029ft 516kts
12-Oct-18 17:52 39.256363 -102.546328 76 41031ft 516kts
12-Oct-18 17:53 39.284796 -102.365385 76 41036ft 517kts
12-Oct-18 17:54 39.312914 -102.184438 77 41022ft 516kts
12-Oct-18 17:55 39.340782 -102.003176 77 41015ft 517kts
12-Oct-18 17:56 39.368493 -101.820922 77 41009ft 517kts
12-Oct-18 17:57 39.397027 -101.639802 75 41014ft 516kts
12-Oct-18 17:58 39.428178 -101.458646 75 41018ft 516kts
12-Oct-18 17:59 39.458912 -101.278439 76 41024ft 516kts
12-Oct-18 18:00 39.489463 -101.097436 76 41025ft 517kts
12-Oct-18 18:01 39.519746 -100.916112 75 41026ft 516kts
12-Oct-18 18:02 39.549817 -100.734352 75 41035ft 515kts
12-Oct-18 18:03 39.579454 -100.553485 75 41050ft 515kts
12-Oct-18 18:04 39.608836 -100.372150 75 41054ft 515kts
12-Oct-18 18:05 39.637887 -100.191075 76 41036ft 515kts
12-Oct-18 18:06 39.666711 -100.009355 76 41027ft 516kts
12-Oct-18 18:07 39.695199 -99.827933 76 41027ft 515kts
12-Oct-18 18:08 39.723462 -99.645917 76 41030ft 516kts
12-Oct-18 18:09 39.751532 -99.463200 76 41029ft 516kts
12-Oct-18 18:10 39.779066 -99.281957 77 41012ft 516kts
12-Oct-18 18:11 39.806404 -99.100003 77 41010ft 516kts
12-Oct-18 18:12 39.833776 -98.915570 76 41010ft 524kts
12-Oct-18 18:13 39.861203 -98.728922 76 41020ft 527kts
12-Oct-18 18:14 39.888336 -98.542024 76 41032ft 526kts
12-Oct-18 18:15 39.915116 -98.355201 76 41036ft 526kts
12-Oct-18 18:16 39.941144 -98.171646 76 41031ft 526kts
12-Oct-18 18:17 39.967288 -97.984851 77 41035ft 527kts
12-Oct-18 18:18 39.993231 -97.797262 76 41037ft 527kts
12-Oct-18 18:19 40.018874 -97.609534 77 41040ft 527kts
12-Oct-18 18:20 40.044138 -97.422122 77 41042ft 527kts
12-Oct-18 18:21 40.068976 -97.235679 77 41031ft 527kts
12-Oct-18 18:22 40.093717 -97.047234 77 41036ft 533kts
12-Oct-18 18:23 40.118374 -96.857331 76 41043ft 540kts
12-Oct-18 18:24 40.142974 -96.665153 77 41044ft 537kts
12-Oct-18 18:25 40.167255 -96.472868 76 41048ft 538kts
12-Oct-18 18:26 40.191084 -96.281533 77 41038ft 538kts
12-Oct-18 18:27 40.221591 -96.091481 72 41047ft 536kts
12-Oct-18 18:28 40.256619 -95.904132 72 41052ft 536kts
12-Oct-18 18:29 40.291133 -95.716696 72 41059ft 536kts
12-Oct-18 18:30 40.325285 -95.529257 72 41062ft 536kts
12-Oct-18 18:31 40.358917 -95.342839 73 41070ft 536kts
12-Oct-18 18:32 40.392186 -95.156522 73 41061ft 536kts
12-Oct-18 18:33 40.425280 -94.969339 73 41063ft 538kts
12-Oct-18 18:34 40.458584 -94.779126 72 41068ft 548kts
12-Oct-18 18:35 40.492016 -94.585982 72 41071ft 547kts
12-Oct-18 18:36 40.525338 -94.391646 72 41058ft 547kts
12-Oct-18 18:37 40.557895 -94.199641 73 41042ft 548kts
12-Oct-18 18:38 40.590340 -94.005526 71 41055ft 539kts
12-Oct-18 18:39 40.619679 -93.812522 73 41065ft 542kts
12-Oct-18 18:40 40.648135 -93.618206 73 41074ft 542kts
12-Oct-18 18:41 40.676266 -93.423635 73 41066ft 542kts
12-Oct-18 18:42 40.703904 -93.230211 74 41052ft 543kts
12-Oct-18 18:43 40.731278 -93.036038 74 41047ft 545kts
12-Oct-18 18:44 40.758694 -92.839319 74 41055ft 552kts
12-Oct-18 18:45 40.785802 -92.641593 74 41052ft 550kts
12-Oct-18 18:46 40.812686 -92.443279 74 41062ft 551kts
12-Oct-18 18:47 40.838156 -92.252775 75 41038ft 549kts
12-Oct-18 18:48 40.859164 -92.093614 75 40937ft 530kts
12-Oct-18 18:49 40.887616 -91.875349 74 40253ft 520kts
12-Oct-18 18:50 40.907677 -91.719407 75 39520ft 519kts
12-Oct-18 18:51 40.935280 -91.502274 75 38414ft 520kts
12-Oct-18 18:52 40.958376 -91.317572 76 37432ft 520kts
12-Oct-18 18:53 40.977586 -91.162151 76 36586ft 518kts
12-Oct-18 18:54 41.004183 -90.944511 78 35330ft 516kts
12-Oct-18 18:55 41.022725 -90.789610 78 34408ft 513kts
12-Oct-18 18:56 41.044723 -90.603931 78 33258ft 510kts
12-Oct-18 18:57 41.069676 -90.390246 78 31853ft 504kts
12-Oct-18 18:58 41.086817 -90.241534 78 30690ft 501kts
12-Oct-18 18:59 41.107016 -90.063819 78 29147ft 496kts
12-Oct-18 19:00 41.126619 -89.888686 78 28026ft 457kts
12-Oct-18 19:01 41.144454 -89.727530 78 25769ft 440kts
12-Oct-18 19:02 41.172757 -89.577854 50 23525ft 405kts
12-Oct-18 19:03 41.234190 -89.460178 47 21296ft 386kts
12-Oct-18 19:04 41.295141 -89.350255 46 19032ft 369kts
12-Oct-18 19:05 41.362729 -89.229880 47 16284ft 350kts
12-Oct-18 19:06 41.409800 -89.146107 47 14202ft 337kts
12-Oct-18 19:07 41.461932 -89.053072 47 12457ft 302kts
12-Oct-18 19:08 41.511404 -88.964742 49 10143ft 295kts
12-Oct-18 19:09 41.559543 -88.878493 50 7589ft 285kts
12-Oct-18 19:10 41.599987 -88.791167 58 5175ft 258kts
12-Oct-18 19:11 41.627024 -88.712320 66 4252ft 218kts
12-Oct-18 19:12 41.649767 -88.639786 66 3024ft 213kts
12-Oct-18 19:13 41.669641 -88.570415 72 3014ft 183kts
12-Oct-18 19:14 41.684496 -88.506526 72 2985ft 176kts
12-Oct-18 19:15 41.704242 -88.387628 78 2997ft 162kts
12-Oct-18 19:16 41.730754 -88.309024 24 2980ft 159kts
12-Oct-18 19:17 41.769589 -88.294832 11 2981ft 148kts
12-Oct-18 19:18 41.808731 -88.281845 11 2508ft 143kts
12-Oct-18 19:19 41.842784 -88.270536 11 1825ft 130kts
12-Oct-18 19:20 41.876421 -88.259371 11 1159ft 123kts
12-Oct-18 19:21 41.909882 -88.248196 7 764ft 23kts
12-Oct-18 19:22 41.906451 -88.253793 255 764ft 0kts
12-Oct-18 19:23 41.906451 -88.253793 255 764ft 0kts
12-Oct-18 19:24 41.906451 -88.253793 255 764ft 0kts

Navigation Log

Ident Type
Flight plan parsing failed, navigation log unavailable